Time;durP1;ratioP1;P1;durP2;ratioP2;P2;SDS_P1;SDS_P2;PMS_P1;PMS_P2;Temp;Humidity;BMP_temperature;BMP_pressure;BME280_temperature;BME280_humidity;BME280_pressure;Samples;Min_cycle;Max_cycle;Signal;HPM_P1;HPM_P2
2022/02/02 00:34:31;;;;;;;0.00;0.00;;;;;;;2.61;86.96;98167.34;5263665;23;20042;-80
2022/02/02 01:03:14;;;;;;;0.00;0.00;;;;;;;2.59;87.59;98201.13;4947369;28;20075;-82
2022/02/02 01:05:40;;;;;;;0.00;0.00;;;;;;;2.63;87.25;98196.97;4945582;29;20043;-81
2022/02/02 02:08:13;;;;;;;0.00;0.00;;;;;;;2.60;87.00;98070.75;6083571;23;20033;31
2022/02/02 02:27:25;;;;;;;0.00;0.00;;;;;;;2.41;87.48;98043.88;6078140;23;20021;31
2022/02/02 05:52:21;;;;;;;0.00;0.00;;;;;;;2.70;87.33;98018.03;6215680;23;20004;-79
2022/02/02 05:54:46;;;;;;;0.00;0.00;;;;;;;2.72;87.00;98031.00;6188557;23;20326;-79
2022/02/02 05:57:13;;;;;;;0.00;0.00;;;;;;;2.71;87.17;98035.47;6213048;23;20463;-81
2022/02/02 05:59:41;;;;;;;0.00;0.00;;;;;;;2.74;87.00;98030.75;6187736;23;20055;-81
2022/02/02 06:02:11;;;;;;;0.00;0.00;;;;;;;2.76;87.39;98036.56;6187542;23;20008;-80
2022/02/02 06:04:44;;;;;;;0.88;0.45;;;;;;;2.76;87.35;98039.22;6187380;23;20227;-81
2022/02/02 06:07:10;;;;;;;0.00;0.00;;;;;;;2.73;86.45;98037.88;6186830;23;20005;-82
2022/02/02 06:09:39;;;;;;;0.00;0.00;;;;;;;2.72;86.80;98038.91;6187048;23;20464;-79
2022/02/02 06:12:06;;;;;;;0.00;0.00;;;;;;;2.72;87.03;98045.00;6186937;23;20418;-80
2022/02/02 06:14:32;;;;;;;0.00;0.00;;;;;;;2.73;87.00;98043.16;6188470;23;20058;-80
2022/02/02 06:17:07;;;;;;;0.00;0.00;;;;;;;2.76;87.20;98049.78;6187355;23;20005;-79
2022/02/02 06:19:33;;;;;;;0.00;0.00;;;;;;;2.78;86.85;98052.97;6187801;23;20008;-78
2022/02/02 06:22:01;;;;;;;3.40;1.25;;;;;;;2.76;86.86;98049.78;6188514;23;20009;-79
2022/02/02 06:24:35;;;;;;;0.00;0.00;;;;;;;2.77;87.12;98043.44;6187327;23;20008;-78
2022/02/02 06:27:09;;;;;;;0.00;0.00;;;;;;;2.81;86.90;98060.41;6214155;23;20143;-78
2022/02/02 06:29:42;;;;;;;0.00;0.00;;;;;;;2.81;86.77;98058.56;6224232;22;20362;-78
2022/02/02 06:32:22;;;;;;;0.00;0.00;;;;;;;2.79;87.02;98059.84;6217201;23;20008;-79
2022/02/02 06:34:54;;;;;;;0.00;0.00;;;;;;;2.80;86.64;98056.94;6188969;23;19997;-80
2022/02/02 06:37:20;;;;;;;0.00;0.00;;;;;;;2.79;86.79;98063.28;6186801;23;20008;-80
2022/02/02 06:39:50;;;;;;;0.00;0.00;;;;;;;2.70;87.44;98059.50;6187257;23;20402;-80
2022/02/02 06:42:16;;;;;;;0.00;0.00;;;;;;;2.69;87.35;98058.69;6186866;23;20016;-80
2022/02/02 06:44:42;;;;;;;0.00;0.00;;;;;;;2.72;87.56;98054.75;6188467;23;20023;-81
2022/02/02 06:47:08;;;;;;;0.63;0.52;;;;;;;2.75;87.19;98067.47;6188352;23;20008;-80
2022/02/02 06:50:28;;;;;;;0.00;0.00;;;;;;;2.74;87.73;98062.44;6194455;23;20026;-83
2022/02/02 06:53:42;;;;;;;0.15;0.15;;;;;;;2.77;87.65;98061.94;6225106;23;20019;-83
2022/02/02 07:13:44;;;;;;;0.20;0.20;;;;;;;2.85;86.70;98061.50;6249275;22;20345;-81
2022/02/02 07:34:36;;;;;;;0.00;0.00;;;;;;;3.02;87.05;98083.31;6244714;23;20022;-80
2022/02/02 07:37:06;;;;;;;0.00;0.00;;;;;;;3.06;86.98;98080.97;6217151;23;20004;-78
2022/02/02 07:39:34;;;;;;;0.00;0.00;;;;;;;3.08;86.67;98086.00;6245712;23;20012;-78
2022/02/02 07:42:05;;;;;;;0.00;0.00;;;;;;;3.07;86.86;98090.47;6245660;23;20004;-79
2022/02/02 07:44:38;;;;;;;0.00;0.00;;;;;;;3.10;86.93;98094.47;6244643;23;20028;-80
2022/02/02 07:47:08;;;;;;;0.00;0.00;;;;;;;3.14;86.65;98100.88;6217116;22;20004;-79
2022/02/02 07:49:38;;;;;;;0.00;0.00;;;;;;;3.16;86.35;98101.38;6217836;23;20360;-78
2022/02/02 07:52:05;;;;;;;0.00;0.00;;;;;;;3.16;86.49;98102.19;6243424;23;20003;-78
2022/02/02 07:54:39;;;;;;;0.00;0.00;;;;;;;3.17;86.24;98103.00;6218746;23;20008;-82
2022/02/02 07:57:14;;;;;;;0.25;0.25;;;;;;;3.19;85.63;98101.69;6217383;23;20004;-77
2022/02/02 08:02:10;;;;;;;0.15;0.15;;;;;;;3.15;85.74;98103.25;6243518;23;20004;-79
2022/02/02 08:04:36;;;;;;;0.00;0.00;;;;;;;3.16;85.72;98104.03;6224887;23;20050;-82
2022/02/02 08:07:02;;;;;;;3.95;0.85;;;;;;;3.16;85.59;98096.09;6218034;23;20012;-81
2022/02/02 08:09:47;;;;;;;0.00;0.00;;;;;;;3.13;85.83;98091.34;6219341;23;20388;-79
2022/02/02 08:12:19;;;;;;;0.00;0.00;;;;;;;3.11;85.52;98083.63;6216656;23;20357;-81
2022/02/02 08:14:52;;;;;;;0.00;0.00;;;;;;;3.10;85.65;98082.06;6245106;23;20032;-82
2022/02/02 08:17:18;;;;;;;0.00;0.00;;;;;;;3.09;85.85;98083.13;6216817;23;20016;-78
2022/02/02 08:19:43;;;;;;;0.00;0.00;;;;;;;3.06;86.00;98083.59;6216486;23;20487;-78
2022/02/02 08:22:09;;;;;;;0.00;0.00;;;;;;;3.02;85.85;98093.09;6216232;23;20007;-78
2022/02/02 08:24:34;;;;;;;0.00;0.00;;;;;;;3.01;85.52;98096.75;6217890;23;20349;-78
2022/02/02 08:26:59;;;;;;;0.00;0.00;;;;;;;3.01;85.99;98094.13;6244530;23;19997;-77
2022/02/02 08:29:26;;;;;;;0.00;0.00;;;;;;;3.02;86.33;98087.81;6242794;23;20146;-76
2022/02/02 08:31:51;;;;;;;0.00;0.00;;;;;;;3.02;86.27;98099.16;6244180;23;20011;-80
2022/02/02 08:34:17;;;;;;;0.00;0.00;;;;;;;3.03;86.30;98086.75;6216734;23;20090;-81
2022/02/02 08:36:47;;;;;;;0.00;0.00;;;;;;;3.02;86.49;98091.22;6216805;23;20008;-80
2022/02/02 08:41:49;;;;;;;0.00;0.00;;;;;;;3.04;85.94;98104.19;6244196;23;20075;-79
2022/02/02 08:44:21;;;;;;;0.00;0.00;;;;;;;3.06;85.84;98109.22;6218476;23;20504;-81
2022/02/02 08:47:01;;;;;;;0.30;0.30;;;;;;;3.08;85.63;98112.44;6218296;23;20004;-78
2022/02/02 08:49:29;;;;;;;0.00;0.00;;;;;;;3.08;85.90;98110.56;6219384;23;20055;-82
2022/02/02 08:51:55;;;;;;;0.05;0.05;;;;;;;3.06;86.25;98104.72;6220731;23;20001;-79
2022/02/02 08:59:51;;;;;;;0.00;0.00;;;;;;;3.15;85.66;98107.72;6245771;23;20008;-79
2022/02/02 09:02:08;;;;;;;0.00;0.00;;;;;;;3.15;85.61;98111.16;6235786;23;20015;-77
2022/02/02 09:07:18;;;;;;;0.00;0.00;;;;;;;3.14;85.15;98114.84;6244424;23;20015;-78
2022/02/02 09:21:03;;;;;;;0.00;0.00;;;;;;;3.10;85.23;98121.69;6244909;23;20011;-79
2022/02/02 09:23:32;;;;;;;0.00;0.00;;;;;;;3.12;85.29;98118.78;6245503;23;20000;-77
2022/02/02 09:33:58;;;;;;;0.00;0.00;;;;;;;3.22;84.44;98126.03;6245505;23;20004;-79
2022/02/02 09:36:28;;;;;;;0.00;0.00;;;;;;;3.20;84.77;98118.34;6219069;23;20066;-77
2022/02/02 09:38:56;;;;;;;0.38;0.38;;;;;;;3.23;84.59;98114.41;6246407;23;20341;-79
2022/02/02 09:44:00;;;;;;;0.00;0.00;;;;;;;3.25;84.45;98109.66;6245612;23;20008;-79
2022/02/02 09:46:32;;;;;;;0.00;0.00;;;;;;;3.28;84.56;98107.31;6218847;23;20015;-78
2022/02/02 09:49:03;;;;;;;0.00;0.00;;;;;;;3.29;84.56;98092.25;6218077;23;20042;-78
2022/02/02 09:51:35;;;;;;;0.00;0.00;;;;;;;3.34;84.51;98101.03;6217377;23;20038;-78
2022/02/02 10:04:34;;;;;;;0.00;0.00;;;;;;;3.37;84.01;98089.16;6245931;23;20008;-81
2022/02/02 10:13:22;;;;;;;0.00;0.00;;;;;;;3.42;83.46;98078.63;6251967;22;20055;-82
2022/02/02 10:18:47;;;;;;;0.00;0.00;;;;;;;3.38;83.45;98071.44;6280977;22;20018;-82
2022/02/02 10:29:18;;;;;;;0.00;0.00;;;;;;;3.35;83.13;98073.53;6180770;22;20011;-78
2022/02/02 10:31:49;;;;;;;0.00;0.00;;;;;;;3.30;83.95;98059.50;6230038;22;20022;-77
2022/02/02 10:42:07;;;;;;;0.00;0.00;;;;;;;3.46;83.52;98060.41;6161043;23;20013;-82
2022/02/02 10:45:29;;;;;;;0.00;0.00;;;;;;;3.49;83.65;98068.63;6154573;23;20143;-82
2022/02/02 10:48:14;;;;;;;0.00;0.00;;;;;;;3.47;83.41;98065.44;6158907;23;20009;-81
2022/02/02 10:51:20;;;;;;;0.00;0.00;;;;;;;3.50;83.52;98061.50;6122738;23;20576;-81
2022/02/02 10:57:14;;;;;;;0.00;0.00;;;;;;;3.45;83.47;98054.31;6119132;23;20063;-80
2022/02/02 11:07:16;;;;;;;0.00;0.00;;;;;;;3.46;83.11;98063.06;6119935;23;20502;-77
2022/02/02 11:09:45;;;;;;;0.00;0.00;;;;;;;3.48;83.60;98063.63;6121110;23;20002;-78
2022/02/02 11:12:14;;;;;;;0.00;0.00;;;;;;;3.45;82.96;98062.25;6119168;23;20416;-79
2022/02/02 11:15:06;;;;;;;0.00;0.00;;;;;;;3.42;83.19;98059.31;6119305;23;20010;-78
2022/02/02 11:17:46;;;;;;;0.00;0.00;;;;;;;3.44;83.59;98050.09;6119320;23;20044;-78
2022/02/02 11:20:14;;;;;;;0.00;0.00;;;;;;;3.49;83.51;98057.25;6119263;23;20056;-78
2022/02/02 11:22:51;;;;;;;0.00;0.00;;;;;;;3.48;83.32;98047.75;6118614;23;20646;-78
2022/02/02 11:25:22;;;;;;;0.00;0.00;;;;;;;3.48;82.93;98047.75;6118895;23;20040;-78
2022/02/02 11:27:50;;;;;;;0.00;0.00;;;;;;;3.49;83.73;98051.97;6119515;23;20018;-78
2022/02/02 11:30:25;;;;;;;0.00;0.00;;;;;;;3.52;83.75;98051.47;6118685;23;20010;-78
2022/02/02 11:32:58;;;;;;;0.00;0.00;;;;;;;3.53;83.64;98045.13;6118661;23;20454;-78
2022/02/02 11:38:18;;;;;;;0.00;0.00;;;;;;;3.52;82.81;98036.38;6121424;23;20037;-78
2022/02/02 11:58:14;;;;;;;0.00;0.00;;;;;;;3.52;82.67;98022.41;6149352;23;20028;-78
2022/02/02 12:01:07;;;;;;;0.15;0.15;;;;;;;3.49;82.87;98023.69;6146733;23;20002;-78
2022/02/02 12:03:44;;;;;;;0.05;0.05;;;;;;;3.49;83.27;98023.69;6147111;23;20005;-80
2022/02/02 12:07:13;;;;;;;0.10;0.10;;;;;;;3.51;82.57;98021.56;6146926;23;20017;-79
2022/02/02 12:09:32;;;;;;;0.00;0.00;;;;;;;3.53;83.37;98022.13;6127848;23;20033;-79
2022/02/02 12:44:58;;;;;;;0.00;0.00;;;;;;;3.15;83.93;98029.28;6151348;23;20031;-80
2022/02/02 12:47:10;;;;;;;0.00;0.00;;;;;;;3.09;84.37;98021.53;6152335;23;20005;-79
2022/02/02 12:58:00;;;;;;;0.00;0.00;;;;;;;3.10;84.54;98029.22;6123919;23;20010;-79
2022/02/02 13:03:04;;;;;;;0.00;0.00;;;;;;;3.13;84.60;98043.78;6124905;23;20002;-80
2022/02/02 13:08:52;;;;;;;0.00;0.00;;;;;;;3.01;84.46;98028.09;6145371;23;20061;-80
2022/02/02 13:12:02;;;;;;;0.00;0.00;;;;;;;3.00;85.10;98029.13;6123353;23;20002;-82
2022/02/02 13:15:13;;;;;;;0.45;0.45;;;;;;;2.94;85.33;98028.31;6123540;23;20052;-77
2022/02/02 13:18:18;;;;;;;0.00;0.00;;;;;;;2.95;85.09;98027.25;6143848;23;20016;-77
2022/02/02 13:21:07;;;;;;;0.00;0.00;;;;;;;2.95;85.44;98026.44;6145547;23;19998;-80
2022/02/02 13:26:38;;;;;;;0.10;0.10;;;;;;;2.96;84.87;98031.47;6122022;23;20010;-79
2022/02/02 13:43:51;;;;;;;0.00;0.00;;;;;;;2.93;85.24;98012.69;6115255;23;20032;-78
2022/02/02 13:46:39;;;;;;;0.00;0.00;;;;;;;2.91;85.35;98020.88;6120299;23;20004;-77
2022/02/02 13:51:55;;;;;;;0.00;0.00;;;;;;;2.82;85.41;98019.72;6120796;23;19905;-77
2022/02/02 13:54:41;;;;;;;0.00;0.00;;;;;;;2.80;85.27;98019.97;6122339;23;20001;-78
2022/02/02 13:57:44;;;;;;;1.27;1.17;;;;;;;2.77;85.57;98024.97;6148161;23;20014;-80
2022/02/02 14:00:36;;;;;;;0.00;0.00;;;;;;;2.80;85.56;98021.84;6127110;23;20008;-84
2022/02/02 14:33:07;;;;;;;0.32;0.32;;;;;;;2.79;85.58;98010.47;6142569;22;20032;-77
2022/02/02 14:35:34;;;;;;;0.00;0.00;;;;;;;2.76;85.69;98007.53;6130489;23;20010;-78
2022/02/02 14:38:00;;;;;;;0.00;0.00;;;;;;;2.78;85.82;98003.59;6124551;23;20013;-81
2022/02/02 14:40:41;;;;;;;0.00;0.00;;;;;;;2.78;85.69;98000.16;6124470;23;20006;-80
2022/02/02 14:43:11;;;;;;;0.00;0.00;;;;;;;2.76;85.96;97989.84;6126860;23;20021;-78
2022/02/02 14:45:41;;;;;;;0.00;0.00;;;;;;;2.74;86.26;97986.66;6130360;23;20059;-78
2022/02/02 14:48:15;;;;;;;0.00;0.00;;;;;;;2.72;86.10;97986.91;6124952;23;20024;-76
2022/02/02 14:50:57;;;;;;;0.05;0.05;;;;;;;2.77;85.85;97986.19;6125965;23;20055;-80
2022/02/02 14:53:37;;;;;;;0.00;0.00;;;;;;;2.77;86.12;97990.63;6151009;23;20006;-80
2022/02/02 16:04:55;;;;;;;0.13;0.13;;;;;;;2.21;89.59;98054.97;6159963;23;20052;-81
2022/02/02 16:10:42;;;;;;;1.55;1.30;;;;;;;2.17;89.43;98059.97;6223590;22;20428;-79
2022/02/02 16:13:15;;;;;;;0.57;0.57;;;;;;;2.17;89.63;98069.72;6253434;22;20009;-78
2022/02/02 16:15:41;;;;;;;0.00;0.00;;;;;;;2.18;90.24;98069.47;6251558;22;20494;-80
2022/02/02 16:18:34;;;;;;;0.00;0.00;;;;;;;2.21;89.88;98058.44;6253333;22;19997;-79
2022/02/02 16:37:28;;;;;;;0.25;0.20;;;;;;;2.19;89.62;98089.53;6148786;23;20066;-80
2022/02/02 16:39:58;;;;;;;0.52;0.52;;;;;;;2.22;89.48;98080.31;6251620;22;19997;-79
2022/02/02 16:45:08;;;;;;;0.00;0.00;;;;;;;2.24;89.76;98076.41;6148934;23;20016;-78
2022/02/02 16:47:34;;;;;;;0.32;0.32;;;;;;;2.25;89.32;98079.84;6251957;22;20040;-79
2022/02/02 16:49:59;;;;;;;0.00;0.00;;;;;;;2.25;89.54;98085.13;6252363;22;20005;-78
2022/02/02 16:52:28;;;;;;;0.95;0.95;;;;;;;2.28;90.03;98097.03;6252357;22;20005;-79
2022/02/02 16:54:55;;;;;;;0.00;0.00;;;;;;;2.31;89.83;98091.28;6253429;22;20092;-79
2022/02/02 17:46:02;;;;;;;0.00;0.00;;;;;;;2.55;88.50;98149.84;6308754;22;20030;-75
2022/02/02 18:22:59;;;;;;;0.20;0.20;;;;;;;2.55;89.04;98141.94;6146620;23;20092;31
2022/02/02 18:25:42;;;;;;;0.00;0.00;;;;;;;2.57;88.86;98145.13;6069537;23;20093;-82
2022/02/02 18:35:16;;;;;;;0.17;0.17;;;;;;;2.69;88.25;98145.03;6139467;22;20039;-79
2022/02/02 18:44:13;;;;;;;0.00;0.00;;;;;;;2.81;87.59;98150.19;6140464;23;20011;-82
2022/02/02 18:53:54;;;;;;;0.05;0.05;;;;;;;2.96;87.30;98150.34;6150072;23;20001;-78
2022/02/02 19:02:00;;;;;;;0.00;0.00;;;;;;;3.02;86.46;98162.53;6149338;23;20002;-78
2022/02/02 19:54:29;;;;;;;0.00;0.00;;;;;;;3.31;82.83;98138.53;6150093;23;20065;-77
2022/02/02 20:03:52;;;;;;;0.00;0.00;;;;;;;3.34;82.09;98137.22;6150265;23;20458;-80
2022/02/02 20:12:01;;;;;;;0.00;0.00;;;;;;;3.37;80.59;98147.31;6140345;22;19940;31
2022/02/02 20:14:35;;;;;;;0.00;0.00;;;;;;;3.36;80.51;98143.84;6130549;23;20022;-81
2022/02/02 20:20:40;;;;;;;0.00;0.00;;;;;;;3.39;80.17;98137.25;6148169;22;20036;-79
2022/02/02 20:23:07;;;;;;;0.00;0.00;;;;;;;3.41;79.71;98137.03;6126289;23;20343;-79
2022/02/02 20:25:35;;;;;;;0.00;0.00;;;;;;;3.41;79.71;98137.03;6098420;23;20006;-79
2022/02/02 20:28:09;;;;;;;0.00;0.00;;;;;;;3.43;80.24;98140.22;6124664;23;20012;-79
2022/02/02 20:30:37;;;;;;;0.00;0.00;;;;;;;3.42;80.03;98135.97;6149564;23;19997;-76
2022/02/02 20:33:04;;;;;;;0.00;0.00;;;;;;;3.41;79.68;98131.75;6148270;23;20343;-78
2022/02/02 20:35:30;;;;;;;0.00;0.00;;;;;;;3.41;80.03;98121.97;6123054;23;20013;-79
2022/02/02 20:37:56;;;;;;;0.00;0.00;;;;;;;3.38;79.90;98125.09;6150567;23;20075;-77
2022/02/02 20:40:24;;;;;;;0.00;0.00;;;;;;;3.38;79.74;98126.94;6150821;23;20006;-77
2022/02/02 21:04:19;;;;;;;0.00;0.00;;;;;;;3.21;79.74;98162.22;6151387;23;20358;-78
2022/02/02 21:14:39;;;;;;;;;;;;;;;3.09;80.51;98159.72;6152258;23;20005;-78
2022/02/02 21:17:07;;;;;;;0.00;0.00;;;;;;;3.09;80.54;98154.44;6124533;23;20256;-77
2022/02/02 21:22:34;;;;;;;0.00;0.00;;;;;;;3.02;81.43;98146.69;6169544;23;20016;-77
2022/02/02 21:27:38;;;;;;;0.00;0.00;;;;;;;2.98;81.52;98148.25;6152591;23;20006;-78
2022/02/02 21:30:05;;;;;;;0.43;0.43;;;;;;;2.99;81.18;98156.97;6125449;23;20465;-78
2022/02/02 21:32:31;;;;;;;0.00;0.00;;;;;;;2.98;81.37;98158.81;6125196;23;20020;-78
2022/02/02 21:35:03;;;;;;;0.00;0.00;;;;;;;3.00;81.40;98155.91;6124201;22;20092;-77
2022/02/02 21:37:32;;;;;;;0.00;0.00;;;;;;;2.99;81.35;98149.84;6125498;23;20032;-78
2022/02/02 21:40:06;;;;;;;;;;;;;;;3.02;81.44;98157.25;6124667;23;20066;-78
2022/02/02 21:57:57;;;;;;;0.00;0.00;;;;;;;3.19;81.30;98186.22;6171639;23;20021;-80
2022/02/02 22:00:23;;;;;;;0.00;0.00;;;;;;;3.20;81.33;98192.34;6123429;22;20101;-81
2022/02/02 22:02:49;;;;;;;0.43;0.43;;;;;;;3.22;81.15;98189.44;6223651;23;20081;-81
2022/02/02 22:08:42;;;;;;;0.00;0.00;;;;;;;3.22;81.02;98192.09;6155461;22;20064;-79
2022/02/02 22:11:08;;;;;;;0.00;0.00;;;;;;;3.26;80.91;98195.81;6126936;23;20024;-80
2022/02/02 22:13:41;;;;;;;0.00;0.00;;;;;;;3.22;80.78;98197.38;6129020;23;20031;-82
2022/02/02 22:17:02;;;;;;;0.00;0.00;;;;;;;3.17;81.44;98201.56;6098249;23;20011;-81
2022/02/02 22:19:28;;;;;;;0.00;0.00;;;;;;;3.13;81.01;98195.16;6073379;23;20014;-81
2022/02/02 22:25:45;;;;;;;0.00;0.00;;;;;;;3.08;81.82;98187.19;6096247;23;20018;-81
2022/02/02 22:28:22;;;;;;;0.00;0.00;;;;;;;3.06;82.13;98178.69;6091616;23;20010;-81
2022/02/02 22:30:53;;;;;;;0.00;0.00;;;;;;;3.02;81.90;98183.69;6073339;23;20022;-80
2022/02/02 22:37:49;;;;;;;0.85;0.85;;;;;;;2.88;82.77;98182.47;6038963;23;20069;-81
2022/02/02 22:40:31;;;;;;;0.68;0.65;;;;;;;2.91;82.81;98181.97;6051657;23;20018;-81
2022/02/02 22:46:27;;;;;;;0.00;0.00;;;;;;;2.93;82.53;98181.72;6046761;23;20021;-81
2022/02/02 22:52:47;;;;;;;0.20;0.20;;;;;;;2.96;82.31;98183.88;6107198;23;20058;-81
2022/02/02 22:55:50;;;;;;;1.20;0.55;;;;;;;2.88;82.82;98188.56;6083832;23;20133;-80
2022/02/02 22:58:17;;;;;;;0.00;0.00;;;;;;;2.86;83.02;98189.84;6073526;23;20086;-81
2022/02/02 23:00:47;;;;;;;7.47;1.75;;;;;;;2.86;82.95;98195.91;6069536;23;20003;-80
2022/02/02 23:06:36;;;;;;;0.00;0.00;;;;;;;2.85;82.37;98190.88;6106851;23;20012;-79
2022/02/02 23:09:05;;;;;;;0.10;0.10;;;;;;;2.88;82.66;98190.38;6128834;23;20013;-80
2022/02/02 23:11:31;;;;;;;0.00;0.00;;;;;;;2.92;82.15;98193.31;6106139;23;20418;-79
2022/02/02 23:13:58;;;;;;;0.00;0.00;;;;;;;2.94;81.88;98191.25;6127817;23;20001;-80
2022/02/02 23:16:33;;;;;;;0.00;0.00;;;;;;;2.92;81.73;98180.13;6104385;23;20422;-77
2022/02/02 23:19:06;;;;;;;3.50;1.02;;;;;;;2.96;81.99;98182.03;6154728;23;20005;-79
2022/02/02 23:21:32;;;;;;;0.00;0.00;;;;;;;3.00;81.63;98184.97;6102450;23;20090;-79
2022/02/02 23:24:02;;;;;;;0.00;0.00;;;;;;;3.02;81.31;98183.69;6126993;23;20002;-79
2022/02/02 23:26:29;;;;;;;0.00;0.00;;;;;;;3.04;81.33;98180.81;6127205;23;20004;-78
2022/02/02 23:29:38;;;;;;;0.00;0.00;;;;;;;3.02;81.60;98185.53;6127024;23;20395;-80
2022/02/02 23:32:04;;;;;;;0.10;0.10;;;;;;;3.01;81.27;98186.56;6152513;22;20013;-79
2022/02/02 23:34:30;;;;;;;0.00;0.00;;;;;;;3.01;80.95;98182.06;6125830;23;20005;-80
2022/02/02 23:36:55;;;;;;;0.00;0.00;;;;;;;3.01;81.01;98197.94;6125669;23;20021;-80
2022/02/02 23:39:21;;;;;;;0.00;0.00;;;;;;;3.02;80.33;98202.16;6126963;23;20005;-80
2022/02/02 23:42:18;;;;;;;0.00;0.00;;;;;;;3.04;80.67;98205.38;6126767;23;20316;-79
2022/02/02 23:44:59;;;;;;;0.10;0.10;;;;;;;3.07;80.29;98198.78;6152189;23;20010;-82
2022/02/02 23:47:28;;;;;;;0.00;0.00;;;;;;;3.06;79.77;98194.53;6126526;23;20010;-80
2022/02/02 23:49:58;;;;;;;;;;;;;;;3.08;80.18;98202.25;6127310;23;20025;-80
2022/02/02 23:52:45;;;;;;;0.00;0.00;;;;;;;3.09;80.41;98209.09;6127859;23;19905;-81
2022/02/02 23:55:17;;;;;;;0.00;0.00;;;;;;;3.11;79.85;98207.03;6152024;22;20005;-78
2022/02/02 23:58:01;;;;;;;0.40;0.40;;;;;;;3.11;79.60;98209.66;6125575;23;20037;-81
